KCQW

Cheraw Municipal/Lynch Bellinger Field Airport

Cheraw, South Carolina, USA
METAR KCQW 151915Z AUTO 28005KT 10SM CLR 13/00 A2992 RMK AO2
Observed Flight Rules
Dec-15 @ 19:15 UTC (28 minutes ago) Visual Flight Rules
Wind Visibility Clouds
280° at 5 knots 10 miles
  • Clear skies
Temperatures Readings
Current 13°C / 55°F
Dewpoint 0°C / 32°F
Humidity 41%
Altimeter 29.92" Hg
Pressure 1013 hPa
Elevation 73
METAR KCQW 151915Z AUTO 28005KT 10SM CLR 13/00 A2992 RMK AO2
Observed Flight Rules
Dec-15 @ 19:15 UTC
(28 minutes ago)
VFR
Wind Visibility
280° at 5 knots 10 miles
Clouds
  • Clear skies
Temperature Dewpoint
13°C / 55°F 0°C / 32°F
Humidity Altimeter Pressure
41% 29.92" Hg 1013 hPa